Time;durP1;ratioP1;P1;durP2;ratioP2;P2;SDS_P1;SDS_P2;PMS_P1;PMS_P2;Temp;Humidity;BMP_temperature;BMP_pressure;BME280_temperature;BME280_humidity;BME280_pressure;Samples;Min_cycle;Max_cycle;Signal;HPM_P1;HPM_P2
2022/10/10 00:00:42;;;;;;;16.83;10.10;;;9.00;99.90;;;;;;5053420;28;20056;-80
2022/10/10 00:03:08;;;;;;;23.10;11.57;;;9.00;99.90;;;;;;5049468;28;20034;-80
2022/10/10 00:05:35;;;;;;;23.13;12.53;;;8.90;99.90;;;;;;5036413;28;20029;-80
2022/10/10 00:08:00;;;;;;;32.23;14.83;;;9.00;99.90;;;;;;5038755;28;20022;-80
2022/10/10 00:10:28;;;;;;;33.97;15.43;;;9.00;99.90;;;;;;5053309;28;20112;-80
2022/10/10 00:12:54;;;;;;;35.87;15.90;;;9.00;99.90;;;;;;5048846;28;20033;-80
2022/10/10 00:15:19;;;;;;;34.70;15.80;;;9.00;99.90;;;;;;5038423;28;20057;-80
2022/10/10 00:17:45;;;;;;;36.53;15.60;;;9.00;99.90;;;;;;5046795;28;20565;-80
2022/10/10 00:20:13;;;;;;;36.90;15.53;;;9.00;99.90;;;;;;5049673;28;20040;-80
2022/10/10 00:22:39;;;;;;;36.60;16.03;;;9.00;99.90;;;;;;5050216;28;20039;-80
2022/10/10 00:25:06;;;;;;;31.07;15.03;;;9.00;99.90;;;;;;5042484;28;20041;-79
2022/10/10 00:27:32;;;;;;;38.83;15.50;;;9.00;99.90;;;;;;5035252;28;20512;-79
2022/10/10 00:29:58;;;;;;;30.57;15.07;;;9.10;99.90;;;;;;5035197;28;20037;-79
2022/10/10 00:32:24;;;;;;;40.20;17.00;;;9.10;99.90;;;;;;5034958;28;20029;-79
2022/10/10 00:34:49;;;;;;;36.07;15.07;;;9.10;99.90;;;;;;5035075;28;20474;-79
2022/10/10 00:37:15;;;;;;;36.97;15.37;;;9.10;99.90;;;;;;5034825;28;20079;-79
2022/10/10 00:39:41;;;;;;;29.57;15.27;;;9.20;99.90;;;;;;5034896;28;20102;-79
2022/10/10 00:42:08;;;;;;;43.77;16.10;;;9.20;99.90;;;;;;5034525;28;20044;-79
2022/10/10 00:44:35;;;;;;;40.83;15.03;;;9.20;99.90;;;;;;5014921;28;20486;-79
2022/10/10 00:47:01;;;;;;;34.63;15.13;;;9.30;99.90;;;;;;5014701;28;20124;-79
2022/10/10 00:49:29;;;;;;;32.57;15.30;;;9.30;99.90;;;;;;5028449;28;20030;-79
2022/10/10 00:51:57;;;;;;;34.87;14.73;;;9.30;99.90;;;;;;5024216;28;20089;-79
2022/10/10 00:54:24;;;;;;;37.33;15.40;;;9.30;99.90;;;;;;5017120;28;20030;-79
2022/10/10 00:56:58;;;;;;;32.83;16.20;;;9.40;99.90;;;;;;5014625;28;20030;-79
2022/10/10 00:59:25;;;;;;;32.60;15.60;;;9.40;99.90;;;;;;5031132;28;20029;-79
2022/10/10 01:01:51;;;;;;;30.93;15.63;;;9.40;99.90;;;;;;5034143;28;20467;-79
2022/10/10 01:04:29;;;;;;;36.43;15.87;;;9.50;99.90;;;;;;5032220;28;20068;-79
2022/10/10 01:06:55;;;;;;;33.20;16.00;;;9.50;99.90;;;;;;5014602;28;20108;-79
2022/10/10 01:09:20;;;;;;;30.07;15.43;;;9.60;99.90;;;;;;5029919;28;20112;-79
2022/10/10 01:11:53;;;;;;;33.07;14.60;;;9.60;99.90;;;;;;5034282;28;20025;-79
2022/10/10 01:14:45;;;;;;;32.07;15.03;;;9.60;99.90;;;;;;5034217;28;20470;-79
2022/10/10 01:17:24;;;;;;;38.77;16.13;;;9.60;99.90;;;;;;5024428;28;20120;-79
2022/10/10 01:20:10;;;;;;;33.73;15.60;;;9.70;99.90;;;;;;5035694;28;20028;-79
2022/10/10 01:22:57;;;;;;;39.40;15.37;;;9.70;99.90;;;;;;5041531;28;20119;-79
2022/10/10 01:25:58;;;;;;;39.67;15.20;;;9.70;99.90;;;;;;5022070;28;20041;-79
2022/10/10 01:28:41;;;;;;;30.07;14.53;;;9.70;99.90;;;;;;5031958;28;20075;-76
2022/10/10 01:31:09;;;;;;;36.20;15.20;;;9.70;99.90;;;;;;5028687;28;20021;-76
2022/10/10 01:34:12;;;;;;;38.13;16.37;;;9.70;99.90;;;;;;5029099;28;20029;-76
2022/10/10 01:36:48;;;;;;;28.50;14.53;;;9.70;99.90;;;;;;5032146;28;20029;-76
2022/10/10 01:39:52;;;;;;;31.47;15.40;;;9.80;99.90;;;;;;5025860;28;20059;-76
2022/10/10 01:42:30;;;;;;;33.17;17.07;;;9.80;99.90;;;;;;5032396;28;20061;-76
2022/10/10 01:44:56;;;;;;;32.20;16.53;;;9.80;99.90;;;;;;5032314;28;20452;-76
2022/10/10 01:47:22;;;;;;;34.13;16.37;;;9.80;99.90;;;;;;5018182;28;20147;-76
2022/10/10 01:49:52;;;;;;;35.13;16.20;;;9.80;99.90;;;;;;5032202;28;20040;-76
2022/10/10 01:52:48;;;;;;;30.53;15.23;;;9.80;99.90;;;;;;5031792;28;20124;-76
2022/10/10 01:55:23;;;;;;;35.15;16.08;;;9.80;99.90;;;;;;5031787;28;20029;-76
2022/10/10 01:58:01;;;;;;;30.70;15.70;;;9.80;99.90;;;;;;5030222;28;20068;-76
2022/10/10 02:00:27;;;;;;;37.30;16.27;;;9.80;99.90;;;;;;5032082;28;20095;-76
2022/10/10 02:03:17;;;;;;;35.27;16.07;;;9.90;99.90;;;;;;5024443;28;20085;-76
2022/10/10 02:05:52;;;;;;;28.40;16.50;;;9.90;99.90;;;;;;5024360;28;20466;-76
2022/10/10 02:08:34;;;;;;;36.83;16.03;;;9.90;99.90;;;;;;5031633;28;20056;-76
2022/10/10 02:11:07;;;;;;;31.70;16.30;;;9.90;99.90;;;;;;5031949;28;20045;-76
2022/10/10 02:13:47;;;;;;;29.93;16.67;;;9.90;99.90;;;;;;5030069;28;20033;-76
2022/10/10 02:16:19;;;;;;;34.27;17.33;;;10.00;99.90;;;;;;5031158;28;20493;-78
2022/10/10 02:18:47;;;;;;;26.87;16.23;;;10.00;99.90;;;;;;5028164;28;20032;-78
2022/10/10 02:21:14;;;;;;;27.97;17.10;;;10.00;99.90;;;;;;5019943;28;20068;-78
2022/10/10 02:23:42;;;;;;;30.23;17.53;;;10.00;99.90;;;;;;5022360;28;20032;-78
2022/10/10 02:26:11;;;;;;;30.10;17.13;;;10.10;99.90;;;;;;5032933;28;20486;-78
2022/10/10 02:28:49;;;;;;;29.75;17.23;;;10.10;99.90;;;;;;5031603;28;20426;-78
2022/10/10 02:31:23;;;;;;;27.10;17.10;;;10.10;99.90;;;;;;5027186;28;20121;-76
2022/10/10 02:33:56;;;;;;;28.00;17.38;;;10.10;99.90;;;;;;5022804;28;20437;-76
2022/10/10 02:36:25;;;;;;;21.67;16.08;;;10.20;99.90;;;;;;5028231;28;20374;-76
2022/10/10 02:38:52;;;;;;;22.93;16.27;;;10.20;99.90;;;;;;5019234;28;20025;-76
2022/10/10 02:41:20;;;;;;;20.83;16.17;;;10.20;99.90;;;;;;5023321;28;20350;-76
2022/10/10 02:43:48;;;;;;;21.05;14.85;;;10.20;99.90;;;;;;5016777;28;20506;-76
2022/10/10 02:46:14;;;;;;;21.60;15.90;;;10.30;99.90;;;;;;5031565;28;20029;-76
2022/10/10 02:48:40;;;;;;;24.40;17.07;;;10.30;99.90;;;;;;5013337;28;20787;-76
2022/10/10 02:51:06;;;;;;;23.52;16.20;;;10.30;99.90;;;;;;5022506;28;20045;-76
2022/10/10 02:53:32;;;;;;;20.70;15.45;;;10.30;99.90;;;;;;5017397;28;20030;-76
2022/10/10 02:55:58;;;;;;;20.52;16.52;;;10.30;99.90;;;;;;5038508;28;20447;-76
2022/10/10 02:58:24;;;;;;;22.55;17.05;;;10.30;99.90;;;;;;5036485;28;20068;-76
2022/10/10 03:00:49;;;;;;;21.07;16.37;;;10.30;99.90;;;;;;5030836;28;20319;-76
2022/10/10 03:03:15;;;;;;;20.17;15.40;;;10.30;99.90;;;;;;5031184;28;20025;-76
2022/10/10 03:05:40;;;;;;;19.52;16.30;;;10.30;99.90;;;;;;5044707;28;20097;-77
2022/10/10 03:08:06;;;;;;;21.33;16.67;;;10.30;99.90;;;;;;5031217;28;20017;-76
2022/10/10 03:10:32;;;;;;;18.83;14.93;;;10.30;99.90;;;;;;5029771;28;20087;-76
2022/10/10 03:12:57;;;;;;;22.90;15.93;;;10.40;99.90;;;;;;5015668;28;20114;-76
2022/10/10 03:15:23;;;;;;;22.27;15.43;;;10.40;99.90;;;;;;5028513;28;20053;-76
2022/10/10 03:17:49;;;;;;;21.90;15.57;;;10.40;99.90;;;;;;5021145;28;20029;-76
2022/10/10 03:20:14;;;;;;;21.80;16.92;;;10.40;99.90;;;;;;5023874;28;20437;-76
2022/10/10 03:22:40;;;;;;;21.30;16.13;;;10.40;99.90;;;;;;5031096;28;20425;-76
2022/10/10 03:25:06;;;;;;;23.58;16.40;;;10.40;99.90;;;;;;5034888;28;20018;-76
2022/10/10 03:27:31;;;;;;;21.85;16.23;;;10.50;99.90;;;;;;5034679;28;20075;-76
2022/10/10 03:29:57;;;;;;;22.08;15.90;;;10.50;99.90;;;;;;5034645;28;20025;-76
2022/10/10 03:32:22;;;;;;;18.70;14.88;;;10.50;99.90;;;;;;5020261;28;20026;-76
2022/10/10 03:34:48;;;;;;;21.53;15.17;;;10.50;99.90;;;;;;5033961;28;20017;-76
2022/10/10 03:37:14;;;;;;;21.17;15.15;;;10.50;99.90;;;;;;5020334;28;20108;-76
2022/10/10 03:39:39;;;;;;;19.23;14.50;;;10.50;99.90;;;;;;5026559;28;20030;-76
2022/10/10 03:42:05;;;;;;;19.50;14.73;;;10.50;99.90;;;;;;5028781;28;20108;-76
2022/10/10 03:44:30;;;;;;;20.30;15.35;;;10.50;99.90;;;;;;5034854;28;20021;-76
2022/10/10 03:46:56;;;;;;;18.63;13.98;;;10.50;99.90;;;;;;5034838;28;20025;-76
2022/10/10 03:49:21;;;;;;;18.83;14.93;;;10.50;99.90;;;;;;5034765;28;20028;-76
2022/10/10 03:51:47;;;;;;;19.77;15.45;;;10.50;99.90;;;;;;5034663;28;20029;-76
2022/10/10 03:54:13;;;;;;;20.52;15.85;;;10.40;99.90;;;;;;5032752;28;20483;-76
2022/10/10 03:56:38;;;;;;;20.80;15.93;;;10.40;99.90;;;;;;5022552;28;20022;-76
2022/10/10 03:59:05;;;;;;;20.88;15.30;;;10.40;99.90;;;;;;5034436;28;20026;-77
2022/10/10 04:01:31;;;;;;;20.98;16.05;;;10.40;99.90;;;;;;5024794;28;20028;-76
2022/10/10 04:03:57;;;;;;;20.75;16.40;;;10.40;99.90;;;;;;5034662;28;20031;-76
2022/10/10 04:06:22;;;;;;;22.85;16.58;;;10.40;99.90;;;;;;5034320;28;20109;-76
2022/10/10 04:08:48;;;;;;;19.05;15.35;;;10.40;99.90;;;;;;5033284;28;20037;-76
2022/10/10 04:11:13;;;;;;;26.73;16.90;;;10.40;99.90;;;;;;5039416;28;20497;-76
2022/10/10 04:13:39;;;;;;;27.20;16.23;;;10.40;99.90;;;;;;5023614;28;20365;-75
2022/10/10 04:16:05;;;;;;;21.77;15.40;;;10.40;99.90;;;;;;5025128;28;20041;-76
2022/10/10 04:18:30;;;;;;;22.07;15.43;;;10.40;99.90;;;;;;5024720;28;20021;-76
2022/10/10 04:20:56;;;;;;;31.87;14.30;;;10.50;99.90;;;;;;5030895;28;20493;-77
2022/10/10 04:23:22;;;;;;;18.93;13.07;;;10.50;99.90;;;;;;5035202;28;20052;-76
2022/10/10 04:25:50;;;;;;;21.52;12.43;;;10.40;99.90;;;;;;5032915;28;20096;-77
2022/10/10 04:28:16;;;;;;;18.63;12.60;;;10.40;99.90;;;;;;5027820;28;20148;-76
2022/10/10 04:30:42;;;;;;;25.10;12.90;;;10.40;99.90;;;;;;5029125;28;20104;-76
2022/10/10 04:33:08;;;;;;;25.95;12.75;;;10.30;99.90;;;;;;5033713;28;20036;-76
2022/10/10 04:35:34;;;;;;;20.52;11.80;;;10.30;99.90;;;;;;5028429;28;20033;-77
2022/10/10 04:38:00;;;;;;;15.30;11.10;;;10.30;99.90;;;;;;5035849;28;20335;-76
2022/10/10 04:40:26;;;;;;;32.87;11.40;;;10.20;99.90;;;;;;5030747;28;20021;-76
2022/10/10 04:42:51;;;;;;;32.10;12.60;;;10.20;99.90;;;;;;5030937;28;20024;-76
2022/10/10 04:45:17;;;;;;;28.70;11.60;;;10.20;99.90;;;;;;5024230;28;20029;-76
2022/10/10 04:47:42;;;;;;;23.93;11.33;;;10.20;99.90;;;;;;5016704;28;20033;-76
2022/10/10 04:50:08;;;;;;;14.00;11.43;;;10.10;99.90;;;;;;5024431;28;20041;-76
2022/10/10 04:52:34;;;;;;;19.53;11.87;;;10.10;99.90;;;;;;5035220;28;20021;-76
2022/10/10 04:55:00;;;;;;;13.63;10.67;;;10.00;99.90;;;;;;5047921;28;20013;-76
2022/10/10 04:57:25;;;;;;;15.10;10.80;;;10.00;99.90;;;;;;5038402;28;20413;-76
2022/10/10 04:59:51;;;;;;;16.60;11.40;;;9.90;99.90;;;;;;5033277;28;20539;-76
2022/10/10 05:02:16;;;;;;;19.67;9.83;;;9.90;99.90;;;;;;5036327;28;20057;-76
2022/10/10 05:04:42;;;;;;;13.10;9.90;;;9.90;99.90;;;;;;5033510;28;20018;-76
2022/10/10 05:07:08;;;;;;;17.80;10.47;;;9.80;99.90;;;;;;5038419;28;20108;-79
2022/10/10 05:09:34;;;;;;;25.27;10.67;;;9.80;99.90;;;;;;5024077;28;20022;-79
2022/10/10 05:12:00;;;;;;;16.33;10.57;;;9.80;99.90;;;;;;5017152;28;20091;-79
2022/10/10 05:14:26;;;;;;;11.30;9.50;;;9.80;99.90;;;;;;5039749;28;20512;-79
2022/10/10 05:16:51;;;;;;;15.70;9.87;;;9.80;99.90;;;;;;5034573;28;20025;-79
2022/10/10 05:19:17;;;;;;;25.30;10.10;;;9.70;99.90;;;;;;5034356;28;20061;-79
2022/10/10 05:21:43;;;;;;;61.10;10.20;;;9.70;99.90;;;;;;5034597;28;20489;-79
2022/10/10 05:24:08;;;;;;;24.87;9.50;;;9.70;99.90;;;;;;5034481;28;20022;-79
2022/10/10 05:26:34;;;;;;;13.50;8.70;;;9.60;99.90;;;;;;5032915;28;20025;-79
2022/10/10 05:29:00;;;;;;;68.70;10.43;;;9.60;99.90;;;;;;5034488;28;20026;-79
2022/10/10 05:31:26;;;;;;;15.37;9.97;;;9.60;99.90;;;;;;5034882;28;20032;-79
2022/10/10 05:33:51;;;;;;;21.27;9.60;;;9.60;99.90;;;;;;5033316;28;20022;-79
2022/10/10 05:36:17;;;;;;;69.60;10.17;;;9.60;99.90;;;;;;5034341;28;20034;-79
2022/10/10 05:38:43;;;;;;;122.53;11.47;;;9.50;99.90;;;;;;5034732;28;20059;-79
2022/10/10 05:41:09;;;;;;;74.13;9.80;;;9.50;99.90;;;;;;5034452;28;20063;-79
2022/10/10 05:43:34;;;;;;;41.50;8.97;;;9.60;99.90;;;;;;5034222;28;20387;-79
2022/10/10 05:46:01;;;;;;;11.27;8.87;;;9.50;99.90;;;;;;5032724;28;20074;-79
2022/10/10 05:48:26;;;;;;;42.50;8.90;;;9.50;99.90;;;;;;5034057;28;20203;-77
2022/10/10 05:50:54;;;;;;;70.23;8.90;;;9.40;99.90;;;;;;5033633;28;20534;-81
2022/10/10 05:53:25;;;;;;;11.30;8.67;;;9.40;99.90;;;;;;5032892;28;20021;-81
2022/10/10 05:55:51;;;;;;;10.23;7.90;;;9.40;99.90;;;;;;5014411;28;20437;-81
2022/10/10 05:58:16;;;;;;;21.33;8.27;;;9.40;99.90;;;;;;5028031;28;20378;-81
2022/10/10 06:00:44;;;;;;;65.03;9.20;;;9.40;99.90;;;;;;5033751;28;20025;-81
2022/10/10 06:03:13;;;;;;;94.33;10.27;;;9.40;99.90;;;;;;5033904;28;20017;-81
2022/10/10 06:05:39;;;;;;;57.13;8.63;;;9.30;99.90;;;;;;5033835;28;20476;-81
2022/10/10 06:08:06;;;;;;;9.13;7.50;;;9.30;99.90;;;;;;5064140;28;20398;-81
2022/10/10 06:10:41;;;;;;;106.47;8.70;;;9.30;99.90;;;;;;5051734;28;20025;-81
2022/10/10 06:13:11;;;;;;;86.10;8.87;;;9.30;99.90;;;;;;5019879;28;20026;-81
2022/10/10 06:15:38;;;;;;;9.03;7.67;;;9.30;99.90;;;;;;5034656;28;20053;-80
2022/10/10 06:18:04;;;;;;;10.10;7.97;;;9.30;99.90;;;;;;5025134;28;20048;-80
2022/10/10 06:20:32;;;;;;;13.93;6.83;;;9.30;99.90;;;;;;5037351;28;20036;-80
2022/10/10 06:22:58;;;;;;;11.93;7.93;;;9.30;99.90;;;;;;5038716;28;20049;-80
2022/10/10 06:25:25;;;;;;;8.03;6.87;;;9.30;99.90;;;;;;5039040;28;20046;-80
2022/10/10 06:27:50;;;;;;;10.37;7.37;;;9.40;99.90;;;;;;5036976;28;20049;-80
2022/10/10 06:30:16;;;;;;;9.60;7.30;;;9.40;99.90;;;;;;5038658;28;20060;-80
2022/10/10 06:32:42;;;;;;;8.60;6.37;;;9.40;99.90;;;;;;5039759;28;20037;-80
2022/10/10 06:35:08;;;;;;;7.73;6.93;;;9.40;99.90;;;;;;5039014;28;20086;-80
2022/10/10 06:37:33;;;;;;;7.93;7.03;;;9.50;99.90;;;;;;5037814;28;20104;-80
2022/10/10 06:39:59;;;;;;;9.10;7.03;;;9.50;99.90;;;;;;5037809;28;20034;-80
2022/10/10 06:42:24;;;;;;;7.73;6.93;;;9.50;99.90;;;;;;5039429;28;20426;-80
2022/10/10 06:44:50;;;;;;;7.57;6.77;;;9.60;99.90;;;;;;5038753;28;20463;-80
2022/10/10 06:47:16;;;;;;;7.53;6.67;;;9.60;99.90;;;;;;5041444;28;20096;-80
2022/10/10 06:49:41;;;;;;;7.53;6.03;;;9.70;99.90;;;;;;5040513;28;20026;-80
2022/10/10 06:52:07;;;;;;;10.47;6.07;;;9.80;99.90;;;;;;5040940;28;20080;-80
2022/10/10 06:54:33;;;;;;;7.70;6.10;;;9.80;99.90;;;;;;5041382;28;20172;-80
2022/10/10 06:56:58;;;;;;;11.03;6.07;;;9.90;99.90;;;;;;5042190;28;20548;-80
2022/10/10 06:59:24;;;;;;;6.70;5.87;;;9.90;99.90;;;;;;5042457;28;20025;-80
2022/10/10 07:01:49;;;;;;;9.50;5.80;;;10.00;99.90;;;;;;5041267;28;20374;-80
2022/10/10 07:04:15;;;;;;;7.27;4.90;;;10.10;99.90;;;;;;5043370;28;20037;-81
2022/10/10 07:06:40;;;;;;;9.13;6.70;;;10.20;99.90;;;;;;5034263;28;20033;-81
2022/10/10 07:09:06;;;;;;;10.47;7.00;;;10.20;99.90;;;;;;5029563;28;20060;-81
2022/10/10 07:11:31;;;;;;;9.43;6.50;;;10.30;99.90;;;;;;5020739;28;20454;-81
2022/10/10 07:13:57;;;;;;;13.03;8.20;;;10.30;99.90;;;;;;5026136;28;20044;-81
2022/10/10 07:16:23;;;;;;;10.60;7.20;;;10.30;99.90;;;;;;5030278;28;20049;-81
2022/10/10 07:18:48;;;;;;;10.70;5.87;;;10.40;99.90;;;;;;5030139;28;20037;-81
2022/10/10 07:21:14;;;;;;;7.88;5.65;;;10.50;99.90;;;;;;5030029;28;20032;-81
2022/10/10 07:23:40;;;;;;;13.70;5.35;;;10.60;99.90;;;;;;5030463;28;20524;-81
2022/10/10 07:26:09;;;;;;;9.07;5.07;;;10.60;99.90;;;;;;5030120;28;20533;-81
2022/10/10 07:28:36;;;;;;;8.10;5.63;;;10.70;99.90;;;;;;5030067;28;20049;-81
2022/10/10 07:31:08;;;;;;;8.95;5.25;;;10.80;99.90;;;;;;5028859;28;20381;-76
2022/10/10 07:33:37;;;;;;;10.73;5.68;;;10.90;99.90;;;;;;5031537;28;20085;-77
2022/10/10 07:36:03;;;;;;;8.77;4.72;;;11.00;99.90;;;;;;5030882;28;20095;-76
2022/10/10 07:38:29;;;;;;;6.97;4.60;;;11.10;99.90;;;;;;5031246;28;20029;-76
2022/10/10 07:40:54;;;;;;;8.48;5.45;;;11.20;99.90;;;;;;5030021;28;20034;-81
2022/10/10 07:43:20;;;;;;;9.95;4.78;;;11.20;99.90;;;;;;5029682;28;20156;-81
2022/10/10 07:45:46;;;;;;;8.90;5.05;;;11.30;99.90;;;;;;5029866;28;20022;-81
2022/10/10 07:48:11;;;;;;;10.70;5.25;;;11.40;99.90;;;;;;5029641;28;20023;-81
2022/10/10 07:50:41;;;;;;;7.32;4.32;;;11.50;99.90;;;;;;5029600;28;20030;-76
2022/10/10 07:53:08;;;;;;;6.28;4.85;;;11.60;99.90;;;;;;5013684;28;20442;-77
2022/10/10 07:55:34;;;;;;;4.90;3.70;;;11.70;99.90;;;;;;5019161;28;20108;-76
2022/10/10 07:58:02;;;;;;;5.70;3.75;;;11.80;99.90;;;;;;5034033;28;20116;-76
2022/10/10 08:00:28;;;;;;;4.95;3.67;;;11.90;99.90;;;;;;5021039;28;20034;-76
2022/10/10 08:02:54;;;;;;;9.93;4.22;;;12.00;99.90;;;;;;5034410;28;20093;-77
2022/10/10 08:05:20;;;;;;;6.65;3.80;;;12.10;99.90;;;;;;5033929;28;20029;-77
2022/10/10 08:07:46;;;;;;;9.90;3.67;;;12.20;99.90;;;;;;5023732;28;20034;-77
2022/10/10 08:10:12;;;;;;;6.57;4.00;;;12.30;99.90;;;;;;5016963;28;20096;-77
2022/10/10 08:12:37;;;;;;;6.10;3.67;;;12.40;99.90;;;;;;5034107;28;20435;-77
2022/10/10 08:15:05;;;;;;;5.85;3.22;;;12.50;99.90;;;;;;5034033;28;20053;-76
2022/10/10 08:17:30;;;;;;;7.78;2.92;;;12.60;99.90;;;;;;5029462;28;20449;-76
2022/10/10 08:19:56;;;;;;;6.93;3.38;;;12.80;99.90;;;;;;5034106;28;20108;-77
2022/10/10 08:22:22;;;;;;;7.63;3.28;;;12.80;99.90;;;;;;5033766;28;20033;-77
2022/10/10 08:24:47;;;;;;;5.80;3.00;;;13.00;99.90;;;;;;5033942;28;20033;-77
2022/10/10 08:27:16;;;;;;;5.85;3.13;;;13.10;99.90;;;;;;5034163;28;20332;-76
2022/10/10 08:29:42;;;;;;;7.78;2.88;;;13.20;99.90;;;;;;5034163;28;20064;-77
2022/10/10 08:32:07;;;;;;;6.38;2.75;;;13.30;99.90;;;;;;5031111;28;20060;-77
2022/10/10 08:34:33;;;;;;;6.63;3.03;;;13.50;99.90;;;;;;5034142;28;20028;-77
2022/10/10 08:36:59;;;;;;;7.72;2.60;;;13.60;99.90;;;;;;5033868;28;20066;-77
2022/10/10 08:39:24;;;;;;;8.57;2.60;;;13.70;99.90;;;;;;5033817;28;20083;-77
2022/10/10 08:41:58;;;;;;;6.45;2.70;;;13.80;99.90;;;;;;5020159;28;20056;-77
2022/10/10 08:44:28;;;;;;;3.40;2.00;;;14.00;99.90;;;;;;5023856;28;20513;-77
2022/10/10 08:46:58;;;;;;;4.30;2.30;;;14.10;99.90;;;;;;5027884;28;20030;-77
2022/10/10 08:49:48;;;;;;;5.60;2.03;;;14.20;99.90;;;;;;5023393;28;20034;-77
2022/10/10 08:53:07;;;;;;;5.40;2.00;;;14.40;99.90;;;;;;5033697;28;20021;-77
2022/10/10 08:55:37;;;;;;;2.35;1.70;;;14.60;99.90;;;;;;5021792;28;20040;-77
2022/10/10 08:58:19;;;;;;;4.72;2.00;;;14.70;99.90;;;;;;5032344;28;20021;-77
2022/10/10 09:01:05;;;;;;;6.82;2.13;;;14.90;99.90;;;;;;5029063;28;20026;-77
2022/10/10 09:03:42;;;;;;;;;;;15.00;99.90;;;;;;5028127;28;20026;-77
2022/10/10 09:06:25;;;;;;;6.95;2.47;;;15.10;99.90;;;;;;5024046;28;19916;-77
2022/10/10 09:09:14;;;;;;;4.13;1.80;;;15.20;99.90;;;;;;5036741;28;20045;-77
2022/10/10 09:11:46;;;;;;;5.95;2.60;;;15.20;99.90;;;;;;5032005;28;20477;-77
2022/10/10 09:14:12;;;;;;;4.95;2.25;;;15.20;99.90;;;;;;5032233;28;20378;-77
2022/10/10 09:16:56;;;;;;;6.63;2.05;;;15.20;99.90;;;;;;5033593;28;20052;-77
2022/10/10 09:19:31;;;;;;;6.07;2.30;;;15.30;99.90;;;;;;5033182;28;20022;-77
2022/10/10 09:22:00;;;;;;;5.10;2.20;;;15.30;99.90;;;;;;5033638;28;20120;-77
2022/10/10 09:24:45;;;;;;;5.88;2.15;;;15.50;99.90;;;;;;5033302;28;20033;-77
2022/10/10 09:27:20;;;;;;;6.18;2.15;;;15.60;99.90;;;;;;5033233;28;20124;-77
2022/10/10 09:29:56;;;;;;;10.75;2.00;;;15.80;99.90;;;;;;5031628;28;20037;-77
2022/10/10 09:32:33;;;;;;;5.88;2.05;;;16.00;99.90;;;;;;5023156;28;20045;-77
2022/10/10 09:35:14;;;;;;;6.07;1.92;;;16.10;99.90;;;;;;5019804;28;20030;-77
2022/10/10 09:37:42;;;;;;;7.70;2.45;;;16.20;99.90;;;;;;5019221;28;20030;-77
2022/10/10 09:40:33;;;;;;;7.70;2.05;;;16.40;99.90;;;;;;5033143;28;20131;-77
2022/10/10 09:43:10;;;;;;;5.95;2.40;;;16.60;99.90;;;;;;5031739;28;20040;-77
2022/10/10 09:45:40;;;;;;;15.15;3.10;;;16.70;99.90;;;;;;5022968;28;20065;-77
2022/10/10 09:48:09;;;;;;;6.93;2.10;;;16.80;99.90;;;;;;5029679;28;20031;-77
2022/10/10 09:50:36;;;;;;;5.10;2.03;;;16.90;99.90;;;;;;5033087;28;20041;-77
2022/10/10 09:53:02;;;;;;;8.70;2.08;;;17.00;99.90;;;;;;5032349;28;20037;-79
2022/10/10 09:55:38;;;;;;;6.70;1.83;;;17.20;99.90;;;;;;5032489;28;20030;-78
2022/10/10 09:58:30;;;;;;;6.40;1.90;;;17.20;99.90;;;;;;5032138;28;20358;-78
2022/10/10 10:01:12;;;;;;;6.43;1.92;;;17.30;99.90;;;;;;5019705;28;20080;-78
2022/10/10 10:03:37;;;;;;;7.88;2.20;;;17.50;99.90;;;;;;5032304;28;20026;-78
2022/10/10 10:06:03;;;;;;;7.25;2.33;;;17.50;99.90;;;;;;5032250;28;20033;-78
2022/10/10 10:08:35;;;;;;;8.55;2.50;;;17.60;99.90;;;;;;5017381;28;20022;-78
2022/10/10 10:11:03;;;;;;;8.10;2.50;;;17.70;99.90;;;;;;5018552;28;20025;-78
2022/10/10 10:13:33;;;;;;;9.13;2.50;;;17.80;99.90;;;;;;5032216;28;20041;-78
2022/10/10 10:16:04;;;;;;;7.22;2.25;;;17.90;99.90;;;;;;5031952;28;20111;-78
2022/10/10 10:18:36;;;;;;;6.18;2.10;;;18.10;99.90;;;;;;5032048;28;20028;-78
2022/10/10 10:21:01;;;;;;;5.32;2.10;;;18.10;99.90;;;;;;5031191;28;20095;-78
2022/10/10 10:23:33;;;;;;;6.53;2.10;;;18.30;99.90;;;;;;5031549;28;20017;-78
2022/10/10 10:26:01;;;;;;;7.80;2.25;;;18.40;99.90;;;;;;5031405;28;20459;-78
2022/10/10 10:28:27;;;;;;;7.32;2.00;;;18.40;99.90;;;;;;5021643;28;20080;-78
2022/10/10 10:30:54;;;;;;;4.63;1.98;;;18.60;99.90;;;;;;5025830;28;20030;-79
2022/10/10 10:33:34;;;;;;;7.60;2.33;;;18.70;99.90;;;;;;5016172;28;20032;-79
2022/10/10 10:36:24;;;;;;;5.72;2.13;;;18.70;99.90;;;;;;5026454;28;20077;-79
2022/10/10 10:39:05;;;;;;;5.45;1.83;;;18.60;99.90;;;;;;5031727;28;20079;-79
2022/10/10 10:41:43;;;;;;;5.57;1.80;;;18.70;99.90;;;;;;5031670;28;20770;-78
2022/10/10 10:44:31;;;;;;;5.68;2.17;;;18.70;99.90;;;;;;5034432;28;20105;-78
2022/10/10 10:47:03;;;;;;;4.07;1.80;;;18.70;99.90;;;;;;5031426;28;20104;-78
2022/10/10 10:49:49;;;;;;;7.78;2.25;;;18.70;99.90;;;;;;5031604;28;20530;-79
2022/10/10 10:52:28;;;;;;;6.07;1.92;;;18.80;99.90;;;;;;5029054;28;20034;-79
2022/10/10 10:55:18;;;;;;;6.53;1.70;;;18.80;99.90;;;;;;5031293;28;20027;-79
2022/10/10 10:58:11;;;;;;;5.70;2.22;;;18.70;99.90;;;;;;5031662;28;20044;-78
2022/10/10 11:00:49;;;;;;;7.30;2.17;;;18.80;99.90;;;;;;5023773;28;20025;-79
2022/10/10 11:03:20;;;;;;;8.05;2.20;;;18.80;99.90;;;;;;5031289;28;20033;-79
2022/10/10 11:06:19;;;;;;;7.22;3.03;;;18.80;99.90;;;;;;5041245;28;20026;-86
2022/10/10 11:08:58;;;;;;;6.25;2.20;;;18.90;99.90;;;;;;5010439;28;20481;-78
2022/10/10 11:11:38;;;;;;;9.05;2.45;;;18.90;99.90;;;;;;5015595;28;20378;-78
2022/10/10 11:14:35;;;;;;;8.88;2.00;;;19.00;99.90;;;;;;5027641;28;20076;-78
2022/10/10 11:17:22;;;;;;;5.85;2.20;;;19.00;99.90;;;;;;5031326;28;20096;-78
2022/10/10 11:20:11;;;;;;;7.10;2.00;;;19.10;99.90;;;;;;5031319;28;20116;-78
2022/10/10 11:22:48;;;;;;;6.68;2.10;;;19.00;99.90;;;;;;5031232;28;21307;-78
2022/10/10 11:25:26;;;;;;;6.05;2.20;;;19.10;99.90;;;;;;5031430;28;20522;-78
2022/10/10 11:27:56;;;;;;;5.20;2.00;;;19.10;99.90;;;;;;5031533;28;20074;-78
2022/10/10 11:30:24;;;;;;;5.50;2.25;;;19.10;99.90;;;;;;5030856;28;20036;-77
2022/10/10 11:33:04;;;;;;;7.22;2.08;;;19.20;99.90;;;;;;5018901;28;20599;-78
2022/10/10 11:35:51;;;;;;;4.45;2.03;;;19.30;99.90;;;;;;5032444;28;20033;-78
2022/10/10 11:38:37;;;;;;;5.80;1.63;;;19.40;99.90;;;;;;5029111;28;20098;-78
2022/10/10 11:41:16;;;;;;;4.95;1.80;;;19.50;99.90;;;;;;5029043;28;20046;-78
2022/10/10 11:44:02;;;;;;;3.90;2.08;;;19.50;99.90;;;;;;5026064;28;20371;-78
2022/10/10 11:46:43;;;;;;;6.10;2.42;;;19.50;99.90;;;;;;5031299;28;20381;-78
2022/10/10 11:49:12;;;;;;;13.98;2.28;;;19.60;99.90;;;;;;5034439;28;20097;-78
2022/10/10 11:51:55;;;;;;;4.63;2.17;;;19.60;99.90;;;;;;5034072;28;20032;-78
2022/10/10 11:54:26;;;;;;;7.45;2.33;;;19.60;99.90;;;;;;5033257;28;20105;-78
2022/10/10 11:56:58;;;;;;;6.00;1.90;;;19.70;99.90;;;;;;5020920;28;20032;-77
2022/10/10 11:59:40;;;;;;;8.75;1.80;;;19.80;99.90;;;;;;5035292;28;20121;-77
2022/10/10 12:02:17;;;;;;;8.25;1.90;;;19.90;99.90;;;;;;5034003;28;20018;-78
2022/10/10 12:04:43;;;;;;;6.00;2.20;;;20.00;99.90;;;;;;5034132;28;20013;-77
2022/10/10 12:07:18;;;;;;;6.60;1.80;;;20.10;99.90;;;;;;5020136;28;20028;-78
2022/10/10 12:09:50;;;;;;;3.90;1.90;;;20.10;99.90;;;;;;5032743;28;20437;-78
2022/10/10 12:12:31;;;;;;;5.38;2.17;;;20.10;99.90;;;;;;5019983;28;20121;-78
2022/10/10 12:15:00;;;;;;;5.15;1.70;;;20.10;99.90;;;;;;5033706;28;20045;-77
2022/10/10 12:17:31;;;;;;;9.43;1.98;;;20.00;99.90;;;;;;5033851;28;20022;-77
2022/10/10 12:20:30;;;;;;;7.28;2.30;;;20.00;99.90;;;;;;5033715;28;20040;-77
2022/10/10 12:23:08;;;;;;;4.82;1.75;;;20.00;99.90;;;;;;5018601;28;20029;-77
2022/10/10 12:25:40;;;;;;;6.53;2.00;;;20.10;99.90;;;;;;5032778;28;20105;-77
2022/10/10 12:28:12;;;;;;;9.23;2.33;;;20.30;99.90;;;;;;5019535;28;20024;-77
2022/10/10 12:31:03;;;;;;;5.45;1.90;;;20.20;99.90;;;;;;5031518;28;20032;-78
2022/10/10 12:33:32;;;;;;;5.07;1.80;;;20.20;99.90;;;;;;5013582;28;20037;-77
2022/10/10 12:36:19;;;;;;;7.70;2.15;;;20.10;99.90;;;;;;5060363;28;20025;-77
2022/10/10 12:39:06;;;;;;;6.75;2.33;;;20.00;99.90;;;;;;5033468;28;20032;-77
2022/10/10 12:41:41;;;;;;;6.03;2.10;;;20.00;99.90;;;;;;5033019;28;20021;-77
2022/10/10 12:44:34;;;;;;;8.25;2.25;;;19.90;99.90;;;;;;5033115;28;20026;-77
2022/10/10 12:47:14;;;;;;;8.82;2.60;;;19.80;99.90;;;;;;5033279;28;20099;-77
2022/10/10 12:49:59;;;;;;;9.90;2.33;;;19.70;99.90;;;;;;5033337;28;20111;-77
2022/10/10 12:52:37;;;;;;;11.98;2.00;;;19.80;99.90;;;;;;5033435;28;20730;-77
2022/10/10 12:55:25;;;;;;;5.07;1.90;;;19.60;99.90;;;;;;5032955;28;20830;-81
2022/10/10 12:57:56;;;;;;;8.82;2.00;;;19.60;99.90;;;;;;5032199;28;20064;-81
2022/10/10 13:00:34;;;;;;;8.95;2.30;;;19.50;99.90;;;;;;5032155;28;20534;-81